Weather reports worldwide

Advertisment
Manchester/Intl, United Kingdom (3334): temperature & dewpoint: 15.05.2019 16:00:00 - 21.05.2019 16:00:00 (BST)Manchester/Intl, United Kingdom (3334): wind speed: 15.05.2019 16:00:00 - 21.05.2019 16:00:00 (BST)Manchester/Intl, United Kingdom (3334): wind direction: 15.05.2019 16:00:00 - 21.05.2019 16:00:00 (BST)Manchester/Intl, United Kingdom (3334): visibility: 15.05.2019 16:00:00 - 21.05.2019 16:00:00 (BST)
Date & Time tt [°C] td [°C] ff [km/h] ff [kn] dd vv [km]
21.05.2019 16:00:00 16,0 5,0 18 10 W 10
21.05.2019 15:00:00 16,0 5,0 21 11 WNW 10
21.05.2019 14:00:00 15,0 5,0 22 12 W 10
21.05.2019 13:00:00 15,0 6,0 18 10 W 10
21.05.2019 12:00:00 15,0 6,0 22 12 W 10
21.05.2019 11:00:00 14,0 7,0 21 11 WNW 10
21.05.2019 10:00:00 13,0 7,0 21 11 WNW 10
21.05.2019 09:00:00 12,0 8,0 15 8 W 10
21.05.2019 08:00:00 11,0 8,0 11 6 WNW 10
21.05.2019 07:00:00 10,0 8,0 9 5 W 10
21.05.2019 06:00:00 10,0 8,0 4 2 W 10
21.05.2019 05:00:00 9,0 8,0 5 3 SW 10
21.05.2019 04:00:00 9,0 8,0 4 2 - 10
21.05.2019 03:00:00 8,0 6,0 5 3 E 10
21.05.2019 02:00:00 7,0 7,0 4 2 SW 10
21.05.2019 01:00:00 7,0 6,0 5 3 SW 10
21.05.2019 00:00:00 8,0 6,0 4 2 - 10
20.05.2019 23:00:00 11,0 8,0 8 4 WNW 10
20.05.2019 22:00:00 12,0 7,0 9 5 WNW 10
20.05.2019 21:00:00 13,0 7,0 13 7 WNW 10
20.05.2019 20:00:00 14,0 6,0 16 9 WNW 10
20.05.2019 19:00:00 15,0 6,0 21 11 W 10
20.05.2019 18:00:00 16,0 6,0 18 10 WNW 10
20.05.2019 17:00:00 16,0 7,0 21 11 WNW 10
20.05.2019 16:00:00 16,0 7,0 16 9 WNW 10
20.05.2019 15:00:00 16,0 7,0 18 10 WNW 10
20.05.2019 14:00:00 16,0 8,0 22 12 W 10
20.05.2019 13:00:00 15,0 8,0 16 9 NW 10
20.05.2019 12:00:00 14,0 8,0 15 8 WNW 10
20.05.2019 11:00:00 16,0 9,0 16 9 W 10
20.05.2019 10:00:00 13,0 9,0 15 8 WNW 10
20.05.2019 09:00:00 12,0 8,0 9 5 NNW 10
20.05.2019 08:00:00 10,0 10,0 8 4 NW 10
20.05.2019 07:00:00 10,0 9,0 2 1 - 3,9
20.05.2019 06:00:00 9,0 9,0 4 2 - 0,3
20.05.2019 05:00:00 9,0 9,0 4 2 - 2,4
20.05.2019 04:00:00 9,0 9,0 2 1 - 4,6
20.05.2019 03:00:00 9,0 8,0 2 1 - 8
20.05.2019 02:00:00 10,0 9,0 4 2 W 10
20.05.2019 01:00:00 11,0 9,0 2 1 - 10
20.05.2019 00:00:00 11,0 9,0 8 4 WNW 10
19.05.2019 23:00:00 11,0 8,0 8 4 WNW 10
19.05.2019 22:00:00 12,0 8,0 9 5 WNW 10
19.05.2019 21:00:00 13,0 8,0 11 6 W 10
19.05.2019 20:00:00 14,0 7,0 15 8 WNW 10
19.05.2019 19:00:00 15,0 7,0 15 8 W 10
19.05.2019 18:00:00 16,0 8,0 16 9 WNW 10
19.05.2019 17:00:00 15,0 8,0 18 10 W 10
19.05.2019 16:00:00 15,0 9,0 15 8 NW 10
19.05.2019 15:00:00 14,0 9,0 13 7 WNW 10
19.05.2019 14:00:00 14,0 9,0 16 9 WNW 10
19.05.2019 13:00:00 14,0 9,0 13 7 WNW 10
19.05.2019 12:00:00 14,0 9,0 11 6 W 10
19.05.2019 11:00:00 13,0 9,0 9 5 NW 10
19.05.2019 10:00:00 12,0 10,0 9 5 WNW 10
19.05.2019 09:00:00 12,0 9,0 8 4 WNW 10
19.05.2019 08:00:00 11,0 10,0 4 2 - 10
19.05.2019 07:00:00 10,0 10,0 4 2 - 9
19.05.2019 06:00:00 10,0 9,0 2 1 - 6
19.05.2019 05:00:00 10,0 9,0 2 1 SSE 7
19.05.2019 04:00:00 10,0 9,0 4 2 WSW 9
19.05.2019 03:00:00 11,0 9,0 5 3 W 10
19.05.2019 02:00:00 11,0 9,0 2 1 - 10
19.05.2019 01:00:00 11,0 9,0 5 3 W 10
19.05.2019 00:00:00 11,0 8,0 8 4 W 10
18.05.2019 23:00:00 12,0 8,0 8 4 WNW 10
18.05.2019 22:00:00 11,0 9,0 5 3 - 10
18.05.2019 21:00:00 12,0 9,0 2 1 SW 10
18.05.2019 20:00:00 13,0 8,0 5 3 WSW 10
18.05.2019 19:00:00 13,0 8,0 9 5 W 10
18.05.2019 18:00:00 14,0 8,0 9 5 NW 10
18.05.2019 17:00:00 14,0 8,0 11 6 W 10
18.05.2019 16:00:00 14,0 8,0 5 3 - 10
18.05.2019 15:00:00 13,0 8,0 8 4 WSW 10
18.05.2019 14:00:00 13,0 7,0 9 5 WSW 10
18.05.2019 13:00:00 14,0 7,0 5 3 - 10
18.05.2019 12:00:00 13,0 7,0 5 3 - 10
18.05.2019 11:00:00 13,0 7,0 11 6 NE 10
18.05.2019 10:00:00 13,0 7,0 4 2 - 10
18.05.2019 09:00:00 12,0 7,0 5 3 - 10
18.05.2019 08:00:00 11,0 8,0 9 5 ENE 10
18.05.2019 07:00:00 11,0 8,0 8 4 NE 10
18.05.2019 06:00:00 10,0 8,0 11 6 NNE 10
18.05.2019 05:00:00 10,0 8,0 11 6 NE 10
18.05.2019 04:00:00 10,0 8,0 13 7 NNE 10
18.05.2019 03:00:00 10,0 8,0 15 8 NNE 10
18.05.2019 02:00:00 10,0 8,0 13 7 NE 10
18.05.2019 01:00:00 10,0 7,0 15 8 NE 10
18.05.2019 00:00:00 11,0 7,0 16 9 NE 10
17.05.2019 23:00:00 11,0 7,0 22 12 NNE 10
17.05.2019 22:00:00 12,0 7,0 21 11 NE 10
17.05.2019 21:00:00 13,0 7,0 24 13 NE 10
17.05.2019 20:00:00 15,0 7,0 24 13 NNE 10
17.05.2019 19:00:00 16,0 4,0 21 11 ENE 10
17.05.2019 18:00:00 17,0 4,0 18 10 NE 10
17.05.2019 17:00:00 18,0 6,0 15 8 ENE 10
17.05.2019 16:00:00 19,0 6,0 15 8 ENE 10
17.05.2019 15:00:00 18,0 5,0 26 14 NE 10
17.05.2019 14:00:00 18,0 5,0 26 14 NE 10
17.05.2019 13:00:00 17,0 6,0 21 11 NE 10
17.05.2019 12:00:00 16,0 7,0 15 8 NNE 10
17.05.2019 11:00:00 13,0 6,0 18 10 NNE 10
17.05.2019 10:00:00 12,0 5,0 15 8 NNE 10
17.05.2019 09:00:00 11,0 6,0 11 6 N 10
17.05.2019 08:00:00 10,0 5,0 15 8 NNE 10
17.05.2019 07:00:00 9,0 6,0 21 11 NE 10
17.05.2019 06:00:00 9,0 7,0 15 8 NE 10
17.05.2019 05:00:00 10,0 5,0 15 8 NE 10
17.05.2019 04:00:00 10,0 4,0 15 8 NE 10
17.05.2019 03:00:00 9,0 5,0 18 10 NE 10
17.05.2019 02:00:00 9,0 5,0 18 10 NE 10
17.05.2019 01:00:00 10,0 4,0 16 9 NE 10
17.05.2019 00:00:00 11,0 3,0 15 8 NE 10
16.05.2019 23:00:00 11,0 1,0 9 5 ENE 10
16.05.2019 22:00:00 12,0 1,0 9 5 ENE 10
16.05.2019 21:00:00 13,0 0,0 15 8 E 10
16.05.2019 20:00:00 14,0 2,0 15 8 E 10
16.05.2019 19:00:00 15,0 2,0 16 9 E 10
16.05.2019 18:00:00 16,0 2,0 11 6 E 10
16.05.2019 17:00:00 16,0 3,0 15 8 E 10
16.05.2019 16:00:00 17,0 3,0 15 8 - 10
16.05.2019 15:00:00 16,0 4,0 15 8 E 10
16.05.2019 14:00:00 16,0 4,0 16 9 E 10
16.05.2019 13:00:00 16,0 4,0 15 8 E 10
16.05.2019 12:00:00 15,0 4,0 13 7 E 10
16.05.2019 11:00:00 14,0 4,0 15 8 - 10
16.05.2019 10:00:00 13,0 4,0 11 6 E 10
16.05.2019 09:00:00 12,0 5,0 9 5 E 10
16.05.2019 08:00:00 11,0 4,0 9 5 E 10
16.05.2019 07:00:00 9,0 4,0 4 2 - 10
16.05.2019 06:00:00 6,0 4,0 5 3 ENE 10
16.05.2019 05:00:00 8,0 4,0 8 4 ENE 9
16.05.2019 04:00:00 8,0 4,0 4 2 - 10
16.05.2019 03:00:00 9,0 4,0 5 3 - 10
16.05.2019 02:00:00 9,0 3,0 9 5 E 10
16.05.2019 01:00:00 10,0 3,0 11 6 E 10
16.05.2019 00:00:00 12,0 4,0 8 4 E 10
15.05.2019 23:00:00 13,0 5,0 5 3 - 10
15.05.2019 22:00:00 14,0 5,0 5 3 E 10
15.05.2019 21:00:00 16,0 6,0 4 2 - 10
15.05.2019 20:00:00 18,0 5,0 5 3 - 10
15.05.2019 19:00:00 18,0 5,0 8 4 - 10
15.05.2019 18:00:00 19,0 4,0 8 4 E 10
15.05.2019 17:00:00 15,0 12,0 9 5 SSW 10
15.05.2019 16:00:00 20,0 5,0 9 5 SE 10

tt = temperature
td = dewpoint
ff = wind speed
dd = wind direction
vv = visibility

Next stations